Time;durP1;ratioP1;P1;durP2;ratioP2;P2;SDS_P1;SDS_P2;PMS_P1;PMS_P2;Temp;Humidity;BMP_temperature;BMP_pressure;BME280_temperature;BME280_humidity;BME280_pressure;Samples;Min_cycle;Max_cycle;Signal;HPM_P1;HPM_P2
2023/12/24 00:00:08;;;;;;;3.20;1.30;;;10.50;99.90;;;;;;4889566;29;21069;-77
2023/12/24 00:02:33;;;;;;;4.13;1.20;;;10.50;99.90;;;;;;4908437;29;20482;-76
2023/12/24 00:04:59;;;;;;;6.23;1.50;;;10.50;99.90;;;;;;4907169;29;20422;-76
2023/12/24 00:07:25;;;;;;;4.20;1.57;;;10.50;99.90;;;;;;4918119;29;20172;-76
2023/12/24 00:09:51;;;;;;;3.87;1.57;;;10.50;99.90;;;;;;4907940;29;20487;-78
2023/12/24 00:12:16;;;;;;;4.30;1.47;;;10.50;99.90;;;;;;4910042;29;20463;-74
2023/12/24 00:14:42;;;;;;;3.30;1.67;;;10.50;99.90;;;;;;4899173;29;20284;-75
2023/12/24 00:17:08;;;;;;;4.23;1.23;;;10.50;99.90;;;;;;4909357;29;20233;-75
2023/12/24 00:19:34;;;;;;;2.83;1.43;;;10.40;99.90;;;;;;4906903;29;20225;-76
2023/12/24 00:21:59;;;;;;;3.00;1.50;;;10.40;99.90;;;;;;4887504;29;20466;-76
2023/12/24 00:24:25;;;;;;;2.30;1.27;;;10.40;99.90;;;;;;4908781;29;20200;-77
2023/12/24 00:26:50;;;;;;;4.97;1.53;;;10.30;99.90;;;;;;4914927;29;20282;-78
2023/12/24 00:29:16;;;;;;;2.67;1.00;;;10.30;99.90;;;;;;4908657;29;20251;-74
2023/12/24 00:31:41;;;;;;;1.67;1.17;;;10.30;99.90;;;;;;4892382;29;20180;-76
2023/12/24 00:34:07;;;;;;;1.70;0.90;;;10.20;99.90;;;;;;4918031;29;20184;-77
2023/12/24 00:36:34;;;;;;;2.90;1.20;;;10.20;99.90;;;;;;4907877;29;20226;-78
2023/12/24 00:38:59;;;;;;;3.13;1.00;;;10.20;99.90;;;;;;4865291;29;20318;-77
2023/12/24 00:41:25;;;;;;;3.27;1.10;;;10.10;99.90;;;;;;4869937;29;21020;-75
2023/12/24 00:43:52;;;;;;;4.03;1.37;;;10.10;99.90;;;;;;4901084;29;20190;-75
2023/12/24 00:46:17;;;;;;;3.80;1.10;;;10.10;99.90;;;;;;4881606;29;20478;-76
2023/12/24 00:48:45;;;;;;;5.00;1.10;;;10.10;99.90;;;;;;4869555;29;20208;-75
2023/12/24 00:51:10;;;;;;;2.27;1.10;;;10.10;99.90;;;;;;4905689;29;20180;-75
2023/12/24 00:53:36;;;;;;;2.50;1.40;;;10.00;99.90;;;;;;4897726;29;20425;-77
2023/12/24 00:56:02;;;;;;;4.13;1.17;;;10.00;99.90;;;;;;4906622;29;20565;-77
2023/12/24 00:58:29;;;;;;;1.90;0.80;;;10.00;99.90;;;;;;4900745;29;20424;-74
2023/12/24 01:00:56;;;;;;;3.33;1.10;;;10.00;99.90;;;;;;4907064;29;20979;-76
2023/12/24 01:03:21;;;;;;;3.13;1.73;;;10.00;99.90;;;;;;4887868;29;20440;-79
2023/12/24 01:05:47;;;;;;;3.53;1.10;;;10.00;99.90;;;;;;4874719;29;20204;-75
2023/12/24 01:08:13;;;;;;;1.80;1.20;;;10.00;99.90;;;;;;4887632;29;20181;-76
2023/12/24 01:10:39;;;;;;;1.37;0.90;;;10.00;99.90;;;;;;4906944;29;20199;-75
2023/12/24 01:13:07;;;;;;;2.60;1.10;;;9.90;99.90;;;;;;4886346;29;20467;-77
2023/12/24 01:15:33;;;;;;;2.37;0.90;;;9.90;99.90;;;;;;4903754;29;20221;-76
2023/12/24 01:17:59;;;;;;;2.13;0.90;;;9.90;99.90;;;;;;4922743;29;20426;-74
2023/12/24 01:20:24;;;;;;;2.23;0.80;;;9.90;99.90;;;;;;4922526;29;20188;-75
2023/12/24 01:22:50;;;;;;;2.90;1.03;;;9.90;99.90;;;;;;4905235;29;20183;-74
2023/12/24 01:25:16;;;;;;;1.90;0.73;;;9.90;99.90;;;;;;4913846;29;20207;-74
2023/12/24 01:27:42;;;;;;;1.57;0.90;;;9.90;99.90;;;;;;4919204;29;20220;-74
2023/12/24 01:30:08;;;;;;;2.63;1.07;;;9.90;99.90;;;;;;4901334;29;20443;-76
2023/12/24 01:32:34;;;;;;;4.10;0.80;;;9.90;99.90;;;;;;4908792;29;20194;-74
2023/12/24 01:34:59;;;;;;;1.40;0.70;;;9.90;99.90;;;;;;4915523;29;20530;-75
2023/12/24 01:37:25;;;;;;;4.80;1.50;;;9.90;99.90;;;;;;4886738;29;20211;-75
2023/12/24 01:39:51;;;;;;;3.97;1.03;;;9.90;99.90;;;;;;4924938;29;20194;-75
2023/12/24 01:42:18;;;;;;;1.20;0.70;;;10.00;99.90;;;;;;4919148;29;20266;-76
2023/12/24 01:44:43;;;;;;;2.13;0.83;;;10.00;99.90;;;;;;4912349;29;20534;-75
2023/12/24 01:47:09;;;;;;;2.17;0.70;;;10.00;99.90;;;;;;4907792;29;20182;-75
2023/12/24 01:49:36;;;;;;;1.93;0.70;;;9.90;99.90;;;;;;4905339;29;20258;-76
2023/12/24 01:52:02;;;;;;;2.03;1.10;;;9.90;99.90;;;;;;4910600;29;20507;-78
2023/12/24 01:54:30;;;;;;;2.27;0.90;;;9.90;99.90;;;;;;4900653;29;20502;-73
2023/12/24 01:56:56;;;;;;;2.07;0.70;;;9.90;99.90;;;;;;4895297;29;20465;-74
2023/12/24 01:59:22;;;;;;;1.83;0.70;;;9.80;99.90;;;;;;4908524;29;20727;-75
2023/12/24 02:01:48;;;;;;;0.90;0.70;;;9.80;99.90;;;;;;4899197;29;20207;-75
2023/12/24 02:04:15;;;;;;;1.83;0.70;;;9.70;99.90;;;;;;4904044;29;20436;-74
2023/12/24 02:06:41;;;;;;;1.40;0.93;;;9.60;99.90;;;;;;4907774;29;20296;-75
2023/12/24 02:09:07;;;;;;;2.87;0.80;;;9.50;99.90;;;;;;4900770;29;20432;-75
2023/12/24 02:11:32;;;;;;;1.10;0.70;;;9.40;99.90;;;;;;4912189;29;20195;-75
2023/12/24 02:13:58;;;;;;;1.40;0.70;;;9.40;99.90;;;;;;4901835;29;20240;-74
2023/12/24 02:16:31;;;;;;;1.57;0.83;;;9.40;99.90;;;;;;4884709;29;20256;-75
2023/12/24 02:18:57;;;;;;;1.30;0.70;;;9.40;99.90;;;;;;4881316;29;20496;-75
2023/12/24 02:21:23;;;;;;;1.10;0.60;;;9.40;99.90;;;;;;4883623;29;20499;-75
2023/12/24 02:23:50;;;;;;;0.97;0.60;;;9.40;99.90;;;;;;4888818;29;20480;-73
2023/12/24 02:26:39;;;;;;;1.90;0.90;;;9.40;99.90;;;;;;4886590;29;20474;-74
2023/12/24 02:29:18;;;;;;;0.90;0.70;;;9.50;99.90;;;;;;4885487;29;20187;-74
2023/12/24 02:31:47;;;;;;;0.83;0.60;;;9.50;99.90;;;;;;4889360;29;20502;-74
2023/12/24 02:34:17;;;;;;;0.90;0.60;;;9.50;99.90;;;;;;4883393;29;20464;-74
2023/12/24 02:36:48;;;;;;;1.73;0.80;;;9.50;99.90;;;;;;4900211;29;20448;-74
2023/12/24 02:39:14;;;;;;;0.80;0.50;;;9.60;99.90;;;;;;4906754;29;20434;-75
2023/12/24 02:41:40;;;;;;;1.50;0.70;;;9.70;99.90;;;;;;4890394;29;20533;-74
2023/12/24 02:44:06;;;;;;;0.83;0.60;;;9.70;99.90;;;;;;4899170;29;20258;-74
2023/12/24 02:46:31;;;;;;;1.07;0.70;;;9.70;99.90;;;;;;4902411;29;20226;-74
2023/12/24 02:48:57;;;;;;;1.07;0.57;;;9.70;99.90;;;;;;4912977;29;20190;-73
2023/12/24 02:51:22;;;;;;;1.20;0.60;;;9.70;99.90;;;;;;4922655;29;20183;-73
2023/12/24 02:53:48;;;;;;;4.67;1.13;;;9.70;99.90;;;;;;4913622;29;20219;-74
2023/12/24 02:56:13;;;;;;;1.07;0.50;;;9.80;99.90;;;;;;4899707;29;20297;-75
2023/12/24 02:58:39;;;;;;;1.20;0.50;;;9.90;99.90;;;;;;4905089;29;20188;-73
2023/12/24 03:01:05;;;;;;;1.57;0.60;;;9.90;99.90;;;;;;4902425;29;20222;-75
2023/12/24 03:03:30;;;;;;;1.53;0.60;;;9.90;99.90;;;;;;4903028;29;20205;-74
2023/12/24 03:05:56;;;;;;;2.40;0.80;;;9.90;99.90;;;;;;4918342;29;20216;-75
2023/12/24 03:08:21;;;;;;;1.00;0.60;;;9.80;99.90;;;;;;4907943;29;20225;-76
2023/12/24 03:10:47;;;;;;;1.80;0.70;;;9.90;99.90;;;;;;4907450;29;20199;-73
2023/12/24 03:13:13;;;;;;;1.80;0.63;;;9.80;99.90;;;;;;4917076;29;20185;-76
2023/12/24 03:15:38;;;;;;;0.90;0.67;;;9.80;99.90;;;;;;4902798;29;20561;-73
2023/12/24 03:18:04;;;;;;;0.80;0.60;;;9.70;99.90;;;;;;4905197;29;20226;-74
2023/12/24 03:20:30;;;;;;;1.27;0.50;;;9.60;99.90;;;;;;4919526;29;20194;-75
2023/12/24 03:22:55;;;;;;;1.00;0.50;;;9.60;99.90;;;;;;4901692;29;20195;-75
2023/12/24 03:25:21;;;;;;;2.20;0.50;;;9.60;99.90;;;;;;4902661;29;20215;-74
2023/12/24 03:27:47;;;;;;;1.10;0.60;;;9.50;99.90;;;;;;4917215;29;20187;-74
2023/12/24 03:30:12;;;;;;;1.20;0.70;;;9.50;99.90;;;;;;4895966;29;20202;-72
2023/12/24 03:32:38;;;;;;;0.80;0.60;;;9.50;99.90;;;;;;4898986;29;20249;-75
2023/12/24 03:35:04;;;;;;;1.90;0.93;;;9.50;99.90;;;;;;4919692;29;20207;-74
2023/12/24 03:37:30;;;;;;;0.80;0.50;;;9.50;99.90;;;;;;4918144;29;20198;-74
2023/12/24 03:39:56;;;;;;;0.80;0.50;;;9.50;99.90;;;;;;4899270;29;20416;-74
2023/12/24 03:42:21;;;;;;;2.40;0.70;;;9.40;99.90;;;;;;4913227;29;20214;-75
2023/12/24 03:44:47;;;;;;;0.80;0.60;;;9.40;99.90;;;;;;4901492;29;20194;-74
2023/12/24 03:47:13;;;;;;;1.43;0.60;;;9.40;99.90;;;;;;4885297;29;20186;-73
2023/12/24 03:49:39;;;;;;;1.17;0.70;;;9.50;99.90;;;;;;4908233;29;20188;-75
2023/12/24 03:52:05;;;;;;;1.10;0.50;;;9.50;99.90;;;;;;4905780;29;20448;-75
2023/12/24 03:54:31;;;;;;;0.70;0.50;;;9.40;99.90;;;;;;4886287;29;20610;-74
2023/12/24 03:56:57;;;;;;;1.30;0.60;;;9.40;99.90;;;;;;4904138;29;20447;-75
2023/12/24 03:59:22;;;;;;;1.60;0.50;;;9.40;99.90;;;;;;4900658;29;20198;-74
2023/12/24 04:01:48;;;;;;;1.00;0.70;;;9.40;99.90;;;;;;4917946;29;20213;-74
2023/12/24 04:04:14;;;;;;;0.90;0.60;;;9.30;99.90;;;;;;4908372;29;20193;-74
2023/12/24 04:06:39;;;;;;;3.00;1.23;;;9.20;99.90;;;;;;4924498;29;20219;-74
2023/12/24 04:09:05;;;;;;;1.20;0.70;;;9.20;99.90;;;;;;4899114;29;20263;-75
2023/12/24 04:11:31;;;;;;;0.90;0.70;;;9.20;99.90;;;;;;4894427;29;20277;-75
2023/12/24 04:13:57;;;;;;;1.10;0.60;;;9.10;99.90;;;;;;4895112;29;20445;-74
2023/12/24 04:16:23;;;;;;;0.70;0.60;;;9.10;99.90;;;;;;4919128;29;20236;-74
2023/12/24 04:18:49;;;;;;;1.00;0.60;;;9.10;99.90;;;;;;4899360;29;20426;-75
2023/12/24 04:21:16;;;;;;;2.20;0.80;;;9.10;99.90;;;;;;4892989;29;20467;-75
2023/12/24 04:23:41;;;;;;;0.90;0.50;;;9.00;99.90;;;;;;4902745;29;20289;-74
2023/12/24 04:26:07;;;;;;;1.03;0.50;;;9.00;99.90;;;;;;4904653;29;20448;-74
2023/12/24 04:28:33;;;;;;;0.90;0.60;;;9.00;99.90;;;;;;4879975;29;20183;-74
2023/12/24 04:30:59;;;;;;;1.47;0.70;;;9.00;99.90;;;;;;4901544;29;20429;-75
2023/12/24 04:33:24;;;;;;;0.90;0.60;;;9.00;99.90;;;;;;4904478;29;20518;-74
2023/12/24 04:35:50;;;;;;;0.70;0.40;;;9.00;99.90;;;;;;4906929;29;20287;-73
2023/12/24 04:38:19;;;;;;;1.17;0.60;;;9.00;99.90;;;;;;4904348;29;20479;-74
2023/12/24 04:40:44;;;;;;;0.70;0.50;;;9.00;99.90;;;;;;4883569;29;20488;-72
2023/12/24 04:43:10;;;;;;;0.70;0.50;;;9.00;99.90;;;;;;4881959;29;20191;-74
2023/12/24 04:45:36;;;;;;;0.90;0.50;;;9.00;99.90;;;;;;4903884;29;20544;-73
2023/12/24 04:48:03;;;;;;;0.70;0.40;;;9.00;99.90;;;;;;4901280;29;20519;-73
2023/12/24 04:50:29;;;;;;;0.70;0.40;;;9.00;99.90;;;;;;4904659;29;20187;-74
2023/12/24 04:52:55;;;;;;;0.77;0.50;;;9.00;99.90;;;;;;4894020;29;20472;-74
2023/12/24 04:55:21;;;;;;;0.90;0.57;;;9.00;99.90;;;;;;4927386;29;20268;-74
2023/12/24 04:57:46;;;;;;;0.70;0.40;;;8.90;99.90;;;;;;4897233;29;20411;-75
2023/12/24 05:00:13;;;;;;;0.70;0.40;;;9.00;99.90;;;;;;4906253;29;20191;-75
2023/12/24 05:02:38;;;;;;;0.93;0.50;;;9.00;99.90;;;;;;4914322;29;20220;-74
2023/12/24 05:05:04;;;;;;;0.77;0.50;;;9.00;99.90;;;;;;4877834;29;20908;-73
2023/12/24 05:07:30;;;;;;;0.60;0.40;;;9.00;99.90;;;;;;4913587;29;20468;-75
2023/12/24 05:09:56;;;;;;;0.80;0.60;;;9.00;99.90;;;;;;4880152;29;20427;-74
2023/12/24 05:12:21;;;;;;;0.80;0.60;;;9.00;99.90;;;;;;4897049;29;20490;-73
2023/12/24 05:14:47;;;;;;;0.93;0.60;;;9.00;99.90;;;;;;4913488;29;20278;-75
2023/12/24 05:17:13;;;;;;;1.00;0.60;;;9.00;99.90;;;;;;4896590;29;20677;-74
2023/12/24 05:19:39;;;;;;;0.80;0.50;;;9.00;99.90;;;;;;4889854;29;20513;-73
2023/12/24 05:22:05;;;;;;;0.73;0.50;;;9.00;99.90;;;;;;4906331;29;20211;-75
2023/12/24 05:24:30;;;;;;;0.80;0.60;;;9.00;99.90;;;;;;4905626;29;20487;-74
2023/12/24 05:26:56;;;;;;;0.90;0.50;;;9.00;99.90;;;;;;4904204;29;20279;-75
2023/12/24 05:29:22;;;;;;;0.70;0.50;;;8.90;99.90;;;;;;4918589;29;20195;-74
2023/12/24 05:31:48;;;;;;;1.00;0.50;;;9.00;99.90;;;;;;4901687;29;20210;-73
2023/12/24 05:34:14;;;;;;;0.90;0.63;;;9.00;99.90;;;;;;4910327;29;20183;-73
2023/12/24 05:36:40;;;;;;;0.80;0.60;;;9.00;99.90;;;;;;4899767;29;20461;-72
2023/12/24 05:39:06;;;;;;;1.07;0.50;;;9.00;99.90;;;;;;4903347;29;20211;-74
2023/12/24 05:41:32;;;;;;;0.60;0.40;;;9.00;99.90;;;;;;4920676;29;20330;-75
2023/12/24 05:43:58;;;;;;;0.70;0.40;;;9.00;99.90;;;;;;4897498;29;20462;-74
2023/12/24 05:46:24;;;;;;;0.70;0.40;;;9.10;99.90;;;;;;4906291;29;20222;-73
2023/12/24 05:48:50;;;;;;;0.60;0.50;;;9.10;99.90;;;;;;4922428;29;20430;-75
2023/12/24 05:51:16;;;;;;;1.10;0.50;;;9.10;99.90;;;;;;4898385;29;20736;-74
2023/12/24 05:53:42;;;;;;;0.70;0.50;;;9.10;99.90;;;;;;4904171;29;20212;-75
2023/12/24 05:56:08;;;;;;;0.60;0.40;;;9.10;99.90;;;;;;4912971;29;20686;-77
2023/12/24 05:58:34;;;;;;;0.67;0.40;;;9.10;99.90;;;;;;4923077;29;20226;-74
2023/12/24 06:00:59;;;;;;;0.80;0.50;;;9.10;99.90;;;;;;4911517;29;20917;-76
2023/12/24 06:03:25;;;;;;;1.43;0.50;;;9.10;99.90;;;;;;4916305;29;20189;-74
2023/12/24 06:05:51;;;;;;;0.60;0.40;;;9.10;99.90;;;;;;4920434;29;20214;-74
2023/12/24 06:08:17;;;;;;;1.57;0.50;;;9.10;99.90;;;;;;4926649;29;20186;-74
2023/12/24 06:10:43;;;;;;;0.70;0.40;;;9.20;99.90;;;;;;4924344;29;20426;-72
2023/12/24 06:13:10;;;;;;;0.80;0.50;;;9.20;99.90;;;;;;4906340;29;20179;-75
2023/12/24 06:15:35;;;;;;;0.80;0.50;;;9.20;99.90;;;;;;4881544;29;20543;-73
2023/12/24 06:18:01;;;;;;;0.80;0.50;;;9.20;99.90;;;;;;4919489;29;20424;-74
2023/12/24 06:20:29;;;;;;;0.73;0.43;;;9.20;99.90;;;;;;4906103;29;20430;-75
2023/12/24 06:22:55;;;;;;;0.60;0.40;;;9.20;99.90;;;;;;4920560;29;20639;-75
2023/12/24 06:25:21;;;;;;;0.93;0.50;;;9.20;99.90;;;;;;4903338;29;20449;-72
2023/12/24 06:27:47;;;;;;;0.60;0.40;;;9.20;99.90;;;;;;4921188;29;20225;-75
2023/12/24 06:30:13;;;;;;;0.93;0.60;;;9.20;99.90;;;;;;4920458;29;20415;-75
2023/12/24 06:32:41;;;;;;;0.87;0.60;;;9.20;99.90;;;;;;4920010;29;20459;-73
2023/12/24 06:35:08;;;;;;;0.80;0.40;;;9.20;99.90;;;;;;4908627;29;20206;-75
2023/12/24 06:37:34;;;;;;;0.80;0.77;;;9.30;99.90;;;;;;4909150;29;20430;-75
2023/12/24 06:39:59;;;;;;;0.70;0.40;;;9.30;99.90;;;;;;4909646;29;20499;-75
2023/12/24 06:42:25;;;;;;;1.43;0.70;;;9.30;99.90;;;;;;4916937;29;20637;-73
2023/12/24 06:44:50;;;;;;;1.10;0.70;;;9.40;99.90;;;;;;4907077;29;20463;-73
2023/12/24 06:47:16;;;;;;;1.07;0.50;;;9.40;99.90;;;;;;4906207;29;20198;-74
2023/12/24 06:49:44;;;;;;;0.87;0.50;;;9.30;99.90;;;;;;4899624;29;20205;-80
2023/12/24 06:52:12;;;;;;;0.70;0.50;;;9.40;99.90;;;;;;4921630;29;20290;-73
2023/12/24 06:54:37;;;;;;;0.70;0.50;;;9.40;99.90;;;;;;4903200;29;20403;-75
2023/12/24 06:57:05;;;;;;;0.73;0.47;;;9.40;99.90;;;;;;4919407;29;20420;-76
2023/12/24 06:59:30;;;;;;;0.80;0.50;;;9.40;99.90;;;;;;4894751;29;20179;-74
2023/12/24 07:01:56;;;;;;;0.70;0.40;;;9.50;99.90;;;;;;4922912;29;20466;-72
2023/12/24 07:04:21;;;;;;;1.00;0.50;;;9.60;99.90;;;;;;4920337;29;20195;-73
2023/12/24 07:06:47;;;;;;;0.77;0.50;;;9.60;99.90;;;;;;4904633;29;20210;-76
2023/12/24 07:09:13;;;;;;;0.70;0.50;;;9.80;99.90;;;;;;4888888;29;20217;-74
2023/12/24 07:11:38;;;;;;;1.00;0.50;;;9.90;99.90;;;;;;4904400;29;20586;-74
2023/12/24 07:14:04;;;;;;;1.73;0.60;;;10.00;99.90;;;;;;4910186;29;20286;-74
2023/12/24 07:16:29;;;;;;;1.20;0.70;;;10.10;99.90;;;;;;4916102;29;20249;-76
2023/12/24 07:18:57;;;;;;;0.77;0.50;;;10.20;99.90;;;;;;4905251;29;20278;-73
2023/12/24 07:21:23;;;;;;;1.33;0.60;;;10.20;99.90;;;;;;4906016;29;20293;-76
2023/12/24 07:23:48;;;;;;;0.67;0.40;;;10.20;99.90;;;;;;4906686;29;20487;-74
2023/12/24 07:26:14;;;;;;;1.47;0.50;;;10.20;99.90;;;;;;4916377;29;20217;-75
2023/12/24 07:28:40;;;;;;;0.70;0.50;;;10.30;99.90;;;;;;4923171;29;20191;-75
2023/12/24 07:31:05;;;;;;;0.73;0.50;;;10.30;99.90;;;;;;4899763;29;20234;-75
2023/12/24 07:33:31;;;;;;;0.80;0.50;;;10.30;99.90;;;;;;4917459;29;20184;-74
2023/12/24 07:35:56;;;;;;;0.90;0.60;;;10.30;99.90;;;;;;4915730;29;20267;-75
2023/12/24 07:38:22;;;;;;;0.90;0.50;;;10.30;99.90;;;;;;4883159;29;20175;-74
2023/12/24 07:40:48;;;;;;;0.80;0.50;;;10.30;99.90;;;;;;4918311;29;20297;-74
2023/12/24 07:43:13;;;;;;;0.97;0.50;;;10.30;99.90;;;;;;4902843;29;20187;-74
2023/12/24 07:45:39;;;;;;;0.90;0.57;;;10.30;99.90;;;;;;4923366;29;20227;-75
2023/12/24 07:48:07;;;;;;;0.90;0.60;;;10.40;99.90;;;;;;4909606;29;20211;-74
2023/12/24 07:50:32;;;;;;;0.80;0.50;;;10.40;99.90;;;;;;4920334;29;20198;-73
2023/12/24 07:52:58;;;;;;;0.70;0.50;;;10.40;99.90;;;;;;4910829;29;20701;-76
2023/12/24 07:55:24;;;;;;;0.80;0.50;;;10.40;99.90;;;;;;4903713;29;20204;-77
2023/12/24 07:57:49;;;;;;;0.70;0.50;;;10.50;99.90;;;;;;4914075;29;20170;-75
2023/12/24 08:00:15;;;;;;;1.03;0.50;;;10.50;99.90;;;;;;4908831;29;20183;-74
2023/12/24 08:02:42;;;;;;;1.70;0.67;;;10.50;99.90;;;;;;4910299;29;20250;-75
2023/12/24 08:05:09;;;;;;;0.90;0.60;;;10.60;99.90;;;;;;4930832;29;20429;-79
2023/12/24 08:07:35;;;;;;;0.90;0.50;;;10.60;99.90;;;;;;4909730;29;20435;-74
2023/12/24 08:10:01;;;;;;;1.87;0.50;;;10.60;99.90;;;;;;4915929;29;20460;-73
2023/12/24 08:12:27;;;;;;;3.60;0.80;;;10.60;99.90;;;;;;4908973;29;20218;-75
2023/12/24 08:14:52;;;;;;;0.90;0.60;;;10.70;99.90;;;;;;4903704;29;20518;-75
2023/12/24 08:17:18;;;;;;;0.90;0.60;;;10.70;99.90;;;;;;4918572;29;20218;-75
2023/12/24 08:19:43;;;;;;;0.90;0.50;;;10.70;99.90;;;;;;4901570;29;20204;-77
2023/12/24 08:22:11;;;;;;;1.00;0.50;;;10.70;99.90;;;;;;4916034;29;20216;-75
2023/12/24 08:24:37;;;;;;;1.10;0.57;;;10.70;99.90;;;;;;4916762;29;20187;-76
2023/12/24 08:27:04;;;;;;;1.00;0.60;;;10.70;99.90;;;;;;4911167;29;20472;-75
2023/12/24 08:29:31;;;;;;;1.30;0.60;;;10.70;99.90;;;;;;4887157;29;20504;-74
2023/12/24 08:31:56;;;;;;;1.37;0.50;;;10.80;99.90;;;;;;4920008;29;20509;-75
2023/12/24 08:34:23;;;;;;;1.00;0.60;;;10.80;99.90;;;;;;4903123;29;20447;-75
2023/12/24 08:36:48;;;;;;;0.80;0.50;;;10.90;99.90;;;;;;4902250;29;20219;-75
2023/12/24 08:39:14;;;;;;;0.80;0.50;;;10.90;99.90;;;;;;4924341;29;20421;-75
2023/12/24 08:41:40;;;;;;;0.70;0.50;;;10.90;99.90;;;;;;4883542;29;20218;-76
2023/12/24 08:44:05;;;;;;;1.47;0.50;;;11.00;99.90;;;;;;4917960;29;20187;-75
2023/12/24 08:46:31;;;;;;;0.70;0.50;;;11.00;99.90;;;;;;4896268;29;20215;-76
2023/12/24 08:48:57;;;;;;;1.13;0.70;;;11.00;99.90;;;;;;4880519;29;20200;-74
2023/12/24 08:51:23;;;;;;;0.90;0.50;;;11.00;99.90;;;;;;4916699;29;20193;-76
2023/12/24 08:53:49;;;;;;;0.87;0.60;;;11.00;99.90;;;;;;4900906;29;20799;-74
2023/12/24 08:56:14;;;;;;;1.00;0.60;;;11.00;99.90;;;;;;4905632;29;20227;-75
2023/12/24 08:58:40;;;;;;;1.13;0.60;;;11.00;99.90;;;;;;4919579;29;20408;-75
2023/12/24 09:01:06;;;;;;;0.77;0.40;;;10.90;99.90;;;;;;4917941;29;20199;-74
2023/12/24 09:03:31;;;;;;;0.90;0.60;;;10.80;99.90;;;;;;4915942;29;20180;-75
2023/12/24 09:05:57;;;;;;;0.80;0.50;;;10.70;99.90;;;;;;4897644;29;20218;-75
2023/12/24 09:08:23;;;;;;;0.70;0.50;;;10.70;99.90;;;;;;4914690;29;20171;-76
2023/12/24 09:10:48;;;;;;;1.00;0.60;;;10.70;99.90;;;;;;4899845;29;20276;-74
2023/12/24 09:13:14;;;;;;;1.60;0.80;;;10.70;99.90;;;;;;4911514;29;20196;-75
2023/12/24 09:15:39;;;;;;;0.90;0.53;;;10.80;99.90;;;;;;4924040;29;20224;-74
2023/12/24 09:18:05;;;;;;;0.70;0.50;;;10.80;99.90;;;;;;4906298;29;20198;-74
2023/12/24 09:20:31;;;;;;;0.73;0.50;;;10.80;99.90;;;;;;4922966;29;20240;-75
2023/12/24 09:22:56;;;;;;;0.80;0.50;;;10.90;99.90;;;;;;4924089;29;20267;-73
2023/12/24 09:25:22;;;;;;;0.90;0.50;;;10.90;99.90;;;;;;4920737;29;20373;-74
2023/12/24 09:27:47;;;;;;;0.80;0.50;;;11.00;99.90;;;;;;4908164;29;20334;-75
2023/12/24 09:30:13;;;;;;;0.70;0.40;;;11.00;99.90;;;;;;4903342;29;20247;-74
2023/12/24 09:32:41;;;;;;;0.90;0.60;;;11.10;99.90;;;;;;4902602;29;20212;-75
2023/12/24 09:35:07;;;;;;;0.73;0.50;;;11.20;99.90;;;;;;4896868;29;20230;-76
2023/12/24 09:37:32;;;;;;;0.80;0.50;;;11.20;99.90;;;;;;4925970;29;20429;-74
2023/12/24 09:39:58;;;;;;;1.53;0.60;;;11.20;99.90;;;;;;4923331;29;20449;-74
2023/12/24 09:42:25;;;;;;;1.03;0.70;;;11.20;99.90;;;;;;4887758;29;20230;-75
2023/12/24 09:44:50;;;;;;;1.23;0.50;;;11.20;99.90;;;;;;4907776;29;20205;-75
2023/12/24 09:47:16;;;;;;;0.70;0.50;;;11.20;99.90;;;;;;4911686;29;20449;-73
2023/12/24 09:49:41;;;;;;;1.10;0.50;;;11.30;99.90;;;;;;4925250;29;20272;-74
2023/12/24 09:52:07;;;;;;;0.80;0.50;;;11.30;99.90;;;;;;4903328;29;20215;-75
2023/12/24 09:54:33;;;;;;;1.40;0.60;;;11.40;99.90;;;;;;4925120;29;20583;-75
2023/12/24 09:56:59;;;;;;;1.00;0.50;;;11.50;99.90;;;;;;4920412;29;20210;-75
2023/12/24 09:59:25;;;;;;;0.80;0.50;;;11.50;99.90;;;;;;4911530;29;20184;-76
2023/12/24 10:01:50;;;;;;;0.80;0.50;;;11.60;99.90;;;;;;4890133;29;20975;-75
2023/12/24 10:04:16;;;;;;;0.70;0.47;;;11.60;99.90;;;;;;4918200;29;20233;-75
2023/12/24 10:06:55;;;;;;;2.00;0.60;;;11.60;99.90;;;;;;4898702;29;20225;-74
2023/12/24 10:09:22;;;;;;;0.90;0.53;;;11.70;99.90;;;;;;4882983;29;20439;-75
2023/12/24 10:12:05;;;;;;;4.83;0.60;;;11.80;99.90;;;;;;4903303;29;20430;-76
2023/12/24 10:14:30;;;;;;;1.10;0.60;;;11.80;99.90;;;;;;4876834;29;20447;-76
2023/12/24 10:16:58;;;;;;;0.70;0.47;;;11.80;99.90;;;;;;4879687;29;20601;-74
2023/12/24 10:19:25;;;;;;;2.13;0.70;;;11.80;99.90;;;;;;4898565;29;20210;-75
2023/12/24 10:22:09;;;;;;;1.10;0.73;;;11.90;99.90;;;;;;4886139;29;20466;-75
2023/12/24 10:24:40;;;;;;;1.10;0.80;;;11.90;99.90;;;;;;4898656;29;20830;-74
2023/12/24 10:27:07;;;;;;;1.27;0.60;;;11.90;99.90;;;;;;4899853;29;20420;-75
2023/12/24 10:29:34;;;;;;;0.90;0.40;;;11.90;99.90;;;;;;4890405;29;20502;-74
2023/12/24 10:32:00;;;;;;;0.83;0.50;;;12.00;99.90;;;;;;4878707;29;20501;-75
2023/12/24 10:34:26;;;;;;;0.90;0.50;;;12.00;99.90;;;;;;4879073;29;20427;-74
2023/12/24 10:36:52;;;;;;;0.80;0.60;;;12.00;99.90;;;;;;4889993;29;20747;-75
2023/12/24 10:39:24;;;;;;;0.80;0.50;;;12.10;99.90;;;;;;4926798;29;20425;-76
2023/12/24 10:41:57;;;;;;;0.90;0.50;;;12.10;99.90;;;;;;4905387;29;20229;-73
2023/12/24 10:44:23;;;;;;;1.43;0.70;;;12.00;99.90;;;;;;4904576;29;20434;-76
2023/12/24 10:46:49;;;;;;;1.17;0.70;;;12.10;99.90;;;;;;4905119;29;20480;-75
2023/12/24 10:49:14;;;;;;;0.90;0.60;;;12.10;99.90;;;;;;4919452;29;20427;-74
2023/12/24 10:51:40;;;;;;;0.90;0.50;;;12.00;99.90;;;;;;4920689;29;20184;-73
2023/12/24 10:54:10;;;;;;;0.80;0.50;;;11.90;99.90;;;;;;4923514;29;20281;-75
2023/12/24 10:56:54;;;;;;;0.83;0.57;;;12.00;99.90;;;;;;4922160;29;20218;-75
2023/12/24 10:59:41;;;;;;;1.00;0.60;;;11.90;99.90;;;;;;4920532;29;20424;-75
2023/12/24 11:02:13;;;;;;;1.17;0.60;;;11.90;99.90;;;;;;4896959;29;20557;-76
2023/12/24 11:04:46;;;;;;;1.77;0.50;;;11.90;99.90;;;;;;4899681;29;20429;-75
2023/12/24 11:07:34;;;;;;;0.90;0.60;;;12.00;99.90;;;;;;4908075;29;20417;-75
2023/12/24 11:10:05;;;;;;;1.50;0.70;;;11.90;99.90;;;;;;4913316;29;20459;-76
2023/12/24 11:12:38;;;;;;;1.70;0.70;;;11.90;99.90;;;;;;4904660;29;20451;-75
2023/12/24 11:15:08;;;;;;;1.53;0.70;;;11.80;99.90;;;;;;4907395;29;20470;-75
2023/12/24 11:17:33;;;;;;;1.57;0.67;;;11.80;99.90;;;;;;4892346;29;20511;-76
2023/12/24 11:20:25;;;;;;;0.80;0.50;;;11.80;99.90;;;;;;4903057;29;20499;-75
2023/12/24 11:23:26;;;;;;;0.90;0.50;;;11.70;99.90;;;;;;4878378;29;20267;-75
2023/12/24 11:25:53;;;;;;;1.20;0.67;;;11.70;99.90;;;;;;4868831;29;20458;-75
2023/12/24 11:28:25;;;;;;;0.90;0.50;;;11.70;99.90;;;;;;4869440;29;20440;-74
2023/12/24 11:30:51;;;;;;;1.10;0.80;;;11.70;99.90;;;;;;4857008;29;20503;-75
2023/12/24 11:33:28;;;;;;;1.80;0.67;;;11.70;99.90;;;;;;4852187;29;20440;-73
2023/12/24 11:35:56;;;;;;;1.50;0.90;;;11.70;99.90;;;;;;4867196;29;20216;-76
2023/12/24 11:38:34;;;;;;;1.10;0.67;;;11.70;99.90;;;;;;4871612;29;20420;-75
2023/12/24 11:41:16;;;;;;;1.20;0.60;;;11.70;99.90;;;;;;4868391;29;20663;-77
2023/12/24 11:44:02;;;;;;;0.70;0.60;;;11.80;99.90;;;;;;4884796;29;20440;-75
2023/12/24 11:46:30;;;;;;;1.10;0.60;;;11.80;99.90;;;;;;4882689;29;20470;-75
2023/12/24 11:49:01;;;;;;;1.53;0.50;;;12.00;99.90;;;;;;4868211;29;20579;-76
2023/12/24 11:51:26;;;;;;;1.57;0.70;;;11.90;99.90;;;;;;4858637;29;20509;-75
2023/12/24 11:54:06;;;;;;;2.70;0.70;;;11.90;99.90;;;;;;4872157;29;20430;-76
2023/12/24 11:56:32;;;;;;;1.30;0.70;;;11.90;99.90;;;;;;4848637;29;20283;-75
2023/12/24 11:59:02;;;;;;;1.10;0.63;;;11.90;99.90;;;;;;4884750;29;20416;-77
2023/12/24 12:01:32;;;;;;;0.80;0.60;;;11.90;99.90;;;;;;4881038;29;20471;-74
2023/12/24 12:04:03;;;;;;;1.00;0.60;;;11.90;99.90;;;;;;4920646;29;20418;-76
2023/12/24 12:06:33;;;;;;;0.80;0.53;;;11.90;99.90;;;;;;4920617;29;20454;-78
2023/12/24 12:09:03;;;;;;;0.90;0.60;;;11.80;99.90;;;;;;4902340;29;20415;-74
2023/12/24 12:11:29;;;;;;;0.70;0.40;;;11.80;99.90;;;;;;4887082;29;20438;-77
2023/12/24 12:13:55;;;;;;;0.90;0.53;;;11.90;99.90;;;;;;4901731;29;20418;-76
2023/12/24 12:16:21;;;;;;;1.30;0.77;;;11.90;99.90;;;;;;4908520;29;20316;-76
2023/12/24 12:18:46;;;;;;;1.50;0.80;;;12.00;99.90;;;;;;4884706;29;20278;-78
2023/12/24 12:21:12;;;;;;;2.40;0.60;;;11.90;99.90;;;;;;4913182;29;20213;-74
2023/12/24 12:23:38;;;;;;;1.37;0.80;;;12.00;99.90;;;;;;4899001;29;20183;-76
2023/12/24 12:26:06;;;;;;;0.93;0.57;;;12.00;99.90;;;;;;4904205;29;20215;-75
2023/12/24 12:28:32;;;;;;;0.90;0.60;;;12.10;99.90;;;;;;4905876;29;20422;-77
2023/12/24 12:30:58;;;;;;;0.80;0.50;;;12.00;99.90;;;;;;4906699;29;20439;-74
2023/12/24 12:33:24;;;;;;;0.90;0.57;;;12.00;99.90;;;;;;4881592;29;20479;-75
2023/12/24 12:35:49;;;;;;;3.80;0.90;;;12.10;99.90;;;;;;4900854;29;20459;-75
2023/12/24 12:38:15;;;;;;;1.10;0.70;;;12.10;99.90;;;;;;4929563;29;20194;-77
2023/12/24 12:40:41;;;;;;;0.80;0.57;;;12.00;99.90;;;;;;4923780;29;20177;-75
2023/12/24 12:43:08;;;;;;;3.63;1.33;;;11.80;99.90;;;;;;4900787;29;20179;-76
2023/12/24 12:45:34;;;;;;;2.17;0.80;;;11.60;99.90;;;;;;4911173;29;20229;-76
2023/12/24 12:48:00;;;;;;;1.33;0.60;;;11.50;99.90;;;;;;4932574;29;20569;-78